TAM3486 SBSV-SBFZ
Flight info
| Callsign | TAM3486 |
|---|---|
| Flight time | 1h 29m |
| Altitude | 37000 |
| Route | FROTI UZ77 ILRIB DCT DOTKU |
| Aircraft | A319/M-SDE3FGHIRWY/LB1 |
Departure
| Time | 2026-04-27 20:18 |
|---|---|
| Airport | Deputado Luiz Eduardo Magalhães International Airport (SBSV) |
Arrival
| Time | 2026-04-27 21:47 |
|---|---|
| Airport | Pinto Martins International Airport (SBFZ) |
| Time | Latitude | Longitude | Altitude | Speed | Heading |
|---|---|---|---|---|---|
| 2026-04-27 19:14 | -12.91352 | -38.33230 | 41 ft | 0 kts | 208° |
| 2026-04-27 20:06 | -12.91345 | -38.33226 | 40 ft | 2 kts | 209° |
| 2026-04-27 20:06 | -12.91332 | -38.33219 | 40 ft | 2 kts | 209° |
| 2026-04-27 20:06 | -12.91319 | -38.33212 | 40 ft | 2 kts | 209° |
| 2026-04-27 20:07 | -12.91306 | -38.33204 | 40 ft | 2 kts | 209° |
| 2026-04-27 20:07 | -12.91293 | -38.33197 | 40 ft | 2 kts | 209° |
| 2026-04-27 20:07 | -12.91285 | -38.33192 | 40 ft | 2 kts | 209° |
| 2026-04-27 20:07 | -12.91271 | -38.33186 | 40 ft | 2 kts | 197° |
| 2026-04-27 20:08 | -12.91256 | -38.33182 | 40 ft | 2 kts | 188° |
| 2026-04-27 20:08 | -12.91240 | -38.33181 | 40 ft | 2 kts | 179° |
| 2026-04-27 20:08 | -12.91227 | -38.33182 | 40 ft | 0 kts | 170° |
| 2026-04-27 20:08 | -12.91222 | -38.33183 | 40 ft | 0 kts | 168° |
| 2026-04-27 20:10 | -12.91224 | -38.33183 | 40 ft | 0 kts | 168° |
| 2026-04-27 20:10 | -12.91235 | -38.33181 | 40 ft | 2 kts | 179° |
| 2026-04-27 20:11 | -12.91255 | -38.33188 | 40 ft | 3 kts | 216° |
| 2026-04-27 20:11 | -12.91272 | -38.33214 | 40 ft | 5 kts | 251° |
| 2026-04-27 20:11 | -12.91279 | -38.33255 | 40 ft | 6 kts | 254° |
| 2026-04-27 20:11 | -12.91266 | -38.33304 | 40 ft | 8 kts | 316° |
| 2026-04-27 20:12 | -12.91218 | -38.33342 | 40 ft | 8 kts | 315° |
| 2026-04-27 20:12 | -12.91199 | -38.33378 | 40 ft | 7 kts | 292° |
| 2026-04-27 20:12 | -12.91198 | -38.33381 | 40 ft | 0 kts | 292° |
| 2026-04-27 20:13 | -12.91196 | -38.33387 | 40 ft | 1 kts | 292° |
| 2026-04-27 20:13 | -12.91187 | -38.33410 | 40 ft | 5 kts | 288° |
| 2026-04-27 20:13 | -12.91185 | -38.33458 | 40 ft | 8 kts | 263° |
| 2026-04-27 20:14 | -12.91197 | -38.33526 | 40 ft | 9 kts | 261° |
| 2026-04-27 20:14 | -12.91179 | -38.33578 | 38 ft | 3 kts | 322° |
| 2026-04-27 20:14 | -12.91143 | -38.33583 | 38 ft | 6 kts | 26° |
| 2026-04-27 20:14 | -12.91118 | -38.33548 | 39 ft | 5 kts | 73° |
| 2026-04-27 20:15 | -12.91111 | -38.33517 | 40 ft | 0 kts | 79° |
| 2026-04-27 20:17 | -12.91111 | -38.33516 | 40 ft | 0 kts | 79° |
| 2026-04-27 20:17 | -12.91079 | -38.33351 | 40 ft | 60 kts | 79° |
| 2026-04-27 20:17 | -12.91001 | -38.32962 | 38 ft | 106 kts | 78° |
| 2026-04-27 20:18 | -12.90747 | -38.31637 | 204 ft | 163 kts | 81° |
| 2026-04-27 20:18 | -12.90518 | -38.30495 | 810 ft | 165 kts | 80° |
| 2026-04-27 20:18 | -12.90282 | -38.29374 | 1573 ft | 162 kts | 80° |
| 2026-04-27 20:18 | -12.89997 | -38.28272 | 2191 ft | 167 kts | 65° |
| 2026-04-27 20:19 | -12.89080 | -38.27483 | 2579 ft | 190 kts | 20° |
| 2026-04-27 20:19 | -12.87696 | -38.27414 | 3026 ft | 209 kts | 358° |
| 2026-04-27 20:19 | -12.86194 | -38.27558 | 3432 ft | 228 kts | 356° |
| 2026-04-27 20:19 | -12.84519 | -38.27713 | 3851 ft | 250 kts | 357° |
| 2026-04-27 20:20 | -12.82725 | -38.27861 | 4362 ft | 268 kts | 357° |
| 2026-04-27 20:20 | -12.80823 | -38.28007 | 5057 ft | 277 kts | 357° |
| 2026-04-27 20:20 | -12.78895 | -38.28147 | 5611 ft | 279 kts | 357° |
| 2026-04-27 20:20 | -12.76939 | -38.28286 | 5918 ft | 280 kts | 357° |
| 2026-04-27 20:21 | -12.74976 | -38.28423 | 5968 ft | 280 kts | 357° |
| 2026-04-27 20:21 | -12.73041 | -38.28557 | 5967 ft | 279 kts | 357° |
| 2026-04-27 20:21 | -12.71095 | -38.28691 | 5972 ft | 280 kts | 358° |
| 2026-04-27 20:21 | -12.69122 | -38.28811 | 6241 ft | 287 kts | 358° |
| 2026-04-27 20:22 | -12.67115 | -38.28926 | 7172 ft | 288 kts | 358° |
| 2026-04-27 20:22 | -12.65140 | -38.29039 | 8145 ft | 286 kts | 357° |
| 2026-04-27 20:22 | -12.63142 | -38.29155 | 9010 ft | 288 kts | 357° |
| 2026-04-27 20:22 | -12.61141 | -38.29273 | 9836 ft | 290 kts | 357° |
| 2026-04-27 20:23 | -12.59133 | -38.29392 | 10538 ft | 296 kts | 357° |
| 2026-04-27 20:23 | -12.57013 | -38.29517 | 10937 ft | 313 kts | 357° |
| 2026-04-27 20:23 | -12.54747 | -38.29650 | 11317 ft | 329 kts | 357° |
| 2026-04-27 20:23 | -12.52451 | -38.29786 | 11926 ft | 335 kts | 357° |
| 2026-04-27 20:24 | -12.50109 | -38.29925 | 12612 ft | 338 kts | 357° |
| 2026-04-27 20:24 | -12.47757 | -38.30064 | 13264 ft | 341 kts | 357° |
| 2026-04-27 20:24 | -12.45364 | -38.30207 | 13893 ft | 344 kts | 358° |
| 2026-04-27 20:24 | -12.42964 | -38.30349 | 14483 ft | 348 kts | 358° |
| 2026-04-27 20:25 | -12.41571 | -38.30431 | 14808 ft | 350 kts | 358° |
| 2026-04-27 20:25 | -12.39122 | -38.30576 | 15372 ft | 354 kts | 358° |
| 2026-04-27 20:25 | -12.36669 | -38.30708 | 15920 ft | 357 kts | 359° |
| 2026-04-27 20:25 | -12.34159 | -38.30809 | 16459 ft | 361 kts | 359° |
| 2026-04-27 20:26 | -12.31612 | -38.30902 | 16985 ft | 365 kts | 360° |
| 2026-04-27 20:26 | -12.29060 | -38.30996 | 17497 ft | 368 kts | 360° |
| 2026-04-27 20:26 | -12.26515 | -38.31091 | 18018 ft | 371 kts | 0° |
| 2026-04-27 20:26 | -12.23906 | -38.31191 | 18565 ft | 373 kts | 0° |
| 2026-04-27 20:27 | -12.21311 | -38.31290 | 19087 ft | 375 kts | 0° |
| 2026-04-27 20:27 | -12.18672 | -38.31392 | 19595 ft | 377 kts | 0° |
| 2026-04-27 20:27 | -12.16067 | -38.31492 | 20093 ft | 380 kts | 0° |
| 2026-04-27 20:27 | -12.13399 | -38.31595 | 20594 ft | 382 kts | 1° |
| 2026-04-27 20:28 | -12.10731 | -38.31699 | 21087 ft | 384 kts | 1° |
| 2026-04-27 20:28 | -12.08033 | -38.31804 | 21577 ft | 386 kts | 1° |
| 2026-04-27 20:28 | -12.05338 | -38.31908 | 22055 ft | 388 kts | 1° |
| 2026-04-27 20:28 | -12.03524 | -38.31978 | 22371 ft | 390 kts | 1° |
| 2026-04-27 20:29 | -11.99881 | -38.32118 | 22972 ft | 393 kts | 1° |
| 2026-04-27 20:29 | -11.97137 | -38.32222 | 23385 ft | 397 kts | 1° |
| 2026-04-27 20:29 | -11.94359 | -38.32328 | 23798 ft | 400 kts | 1° |
| 2026-04-27 20:29 | -11.91551 | -38.32436 | 24210 ft | 404 kts | 1° |
| 2026-04-27 20:30 | -11.88762 | -38.32544 | 24610 ft | 407 kts | 1° |
| 2026-04-27 20:30 | -11.85893 | -38.32656 | 25018 ft | 410 kts | 1° |
| 2026-04-27 20:30 | -11.83055 | -38.32766 | 25408 ft | 413 kts | 1° |
| 2026-04-27 20:30 | -11.80156 | -38.32877 | 25798 ft | 416 kts | 0° |
| 2026-04-27 20:31 | -11.77235 | -38.32990 | 26185 ft | 418 kts | 0° |
| 2026-04-27 20:31 | -11.74299 | -38.33104 | 26567 ft | 421 kts | 0° |
| 2026-04-27 20:31 | -11.71396 | -38.33215 | 26936 ft | 424 kts | 0° |
| 2026-04-27 20:31 | -11.68403 | -38.33331 | 27302 ft | 427 kts | 0° |
| 2026-04-27 20:32 | -11.65439 | -38.33447 | 27654 ft | 429 kts | 360° |
| 2026-04-27 20:32 | -11.62450 | -38.33563 | 28013 ft | 432 kts | 360° |
| 2026-04-27 20:32 | -11.59429 | -38.33680 | 28371 ft | 434 kts | 360° |
| 2026-04-27 20:32 | -11.56369 | -38.33799 | 28720 ft | 437 kts | 360° |
| 2026-04-27 20:33 | -11.53345 | -38.33916 | 29074 ft | 439 kts | 360° |
| 2026-04-27 20:33 | -11.50254 | -38.34036 | 29442 ft | 441 kts | 360° |
| 2026-04-27 20:33 | -11.47177 | -38.34155 | 29803 ft | 443 kts | 360° |
| 2026-04-27 20:33 | -11.44059 | -38.34276 | 30167 ft | 445 kts | 360° |
| 2026-04-27 20:34 | -11.40939 | -38.34397 | 30544 ft | 447 kts | 360° |
| 2026-04-27 20:34 | -11.37838 | -38.34516 | 30924 ft | 448 kts | 360° |
| 2026-04-27 20:34 | -11.34674 | -38.34638 | 31296 ft | 450 kts | 359° |
| 2026-04-27 20:34 | -11.31563 | -38.34757 | 31755 ft | 449 kts | 359° |
| 2026-04-27 20:35 | -11.28454 | -38.34877 | 32280 ft | 446 kts | 359° |
| 2026-04-27 20:35 | -11.25344 | -38.34997 | 32811 ft | 443 kts | 359° |
| 2026-04-27 20:35 | -11.22263 | -38.35117 | 33349 ft | 441 kts | 359° |
| 2026-04-27 20:35 | -11.19163 | -38.35236 | 33855 ft | 439 kts | 359° |
| 2026-04-27 20:36 | -11.16119 | -38.35355 | 34309 ft | 438 kts | 359° |
| 2026-04-27 20:36 | -11.13094 | -38.35473 | 34737 ft | 437 kts | 359° |
| 2026-04-27 20:36 | -11.10042 | -38.35590 | 35140 ft | 436 kts | 359° |
| 2026-04-27 20:36 | -11.06983 | -38.35709 | 35502 ft | 436 kts | 359° |
| 2026-04-27 20:37 | -11.03957 | -38.35825 | 35787 ft | 437 kts | 359° |
| 2026-04-27 20:37 | -11.00911 | -38.35943 | 36028 ft | 439 kts | 359° |
| 2026-04-27 20:37 | -10.97828 | -38.36060 | 36269 ft | 440 kts | 359° |
| 2026-04-27 20:37 | -10.94727 | -38.36179 | 36484 ft | 442 kts | 359° |
| 2026-04-27 20:38 | -10.91640 | -38.36299 | 36709 ft | 443 kts | 359° |
| 2026-04-27 20:38 | -10.88569 | -38.36417 | 36931 ft | 444 kts | 359° |
| 2026-04-27 20:38 | -10.82318 | -38.36659 | 36982 ft | 445 kts | 359° |
| 2026-04-27 20:39 | -10.76114 | -38.36897 | 36992 ft | 444 kts | 359° |
| 2026-04-27 20:39 | -10.69904 | -38.37136 | 36993 ft | 445 kts | 359° |
| 2026-04-27 20:40 | -10.63735 | -38.37374 | 36995 ft | 445 kts | 359° |
| 2026-04-27 20:40 | -10.57478 | -38.37614 | 36997 ft | 446 kts | 359° |
| 2026-04-27 20:41 | -10.51285 | -38.37854 | 36998 ft | 445 kts | 359° |
| 2026-04-27 20:41 | -10.45050 | -38.38095 | 37002 ft | 445 kts | 359° |
| 2026-04-27 20:42 | -10.38853 | -38.38333 | 37004 ft | 445 kts | 359° |
| 2026-04-27 20:42 | -10.32676 | -38.38571 | 37005 ft | 445 kts | 359° |
| 2026-04-27 20:43 | -10.26474 | -38.39148 | 37009 ft | 445 kts | 353° |
| 2026-04-27 20:43 | -10.20331 | -38.40353 | 37005 ft | 446 kts | 349° |
| 2026-04-27 20:44 | -10.14251 | -38.41690 | 36997 ft | 446 kts | 349° |
| 2026-04-27 20:44 | -10.08155 | -38.43029 | 36992 ft | 446 kts | 349° |
| 2026-04-27 20:45 | -10.02030 | -38.44369 | 36988 ft | 446 kts | 349° |
| 2026-04-27 20:45 | -9.95945 | -38.45701 | 36982 ft | 446 kts | 349° |
| 2026-04-27 20:46 | -9.89827 | -38.47039 | 36977 ft | 446 kts | 349° |
| 2026-04-27 20:46 | -9.83745 | -38.48361 | 36974 ft | 446 kts | 350° |
| 2026-04-27 20:47 | -9.77587 | -38.49305 | 36970 ft | 445 kts | 355° |
| 2026-04-27 20:47 | -9.71388 | -38.49958 | 36969 ft | 444 kts | 356° |
| 2026-04-27 20:48 | -9.66215 | -38.50498 | 36967 ft | 444 kts | 356° |
| 2026-04-27 20:48 | -9.59021 | -38.51251 | 36968 ft | 445 kts | 355° |
| 2026-04-27 20:49 | -9.52818 | -38.51904 | 36967 ft | 445 kts | 355° |
| 2026-04-27 20:49 | -9.46665 | -38.52551 | 36964 ft | 445 kts | 355° |
| 2026-04-27 20:50 | -9.40475 | -38.53203 | 36963 ft | 444 kts | 356° |
| 2026-04-27 20:50 | -9.34275 | -38.53854 | 36964 ft | 444 kts | 356° |
| 2026-04-27 20:51 | -9.28112 | -38.54502 | 36963 ft | 444 kts | 356° |
| 2026-04-27 20:51 | -9.21968 | -38.55148 | 36965 ft | 443 kts | 356° |
| 2026-04-27 20:52 | -9.15783 | -38.55797 | 36961 ft | 444 kts | 356° |
| 2026-04-27 20:52 | -9.09605 | -38.56446 | 36957 ft | 444 kts | 356° |
| 2026-04-27 20:53 | -9.03387 | -38.57098 | 36957 ft | 444 kts | 356° |
| 2026-04-27 20:53 | -8.97241 | -38.57744 | 36952 ft | 444 kts | 356° |
| 2026-04-27 20:54 | -8.87992 | -38.58715 | 36958 ft | 443 kts | 356° |
| 2026-04-27 20:55 | -8.81795 | -38.59362 | 36959 ft | 444 kts | 356° |
| 2026-04-27 20:55 | -8.75642 | -38.60004 | 36960 ft | 444 kts | 356° |
| 2026-04-27 20:56 | -8.69458 | -38.60652 | 36961 ft | 444 kts | 356° |
| 2026-04-27 20:56 | -8.63298 | -38.61297 | 36962 ft | 443 kts | 356° |
| 2026-04-27 20:57 | -8.57129 | -38.61943 | 36963 ft | 443 kts | 356° |
| 2026-04-27 20:57 | -8.51006 | -38.62585 | 36971 ft | 443 kts | 356° |
| 2026-04-27 20:58 | -8.44798 | -38.63234 | 36975 ft | 443 kts | 356° |
| 2026-04-27 20:58 | -8.38685 | -38.63873 | 36975 ft | 444 kts | 357° |
| 2026-04-27 20:59 | -8.32523 | -38.64518 | 36980 ft | 443 kts | 356° |
| 2026-04-27 20:59 | -8.26388 | -38.65162 | 36987 ft | 443 kts | 356° |
| 2026-04-27 21:00 | -8.20221 | -38.65837 | 36990 ft | 443 kts | 357° |
| 2026-04-27 21:00 | -8.14068 | -38.66499 | 36986 ft | 443 kts | 357° |
| 2026-04-27 21:01 | -8.07933 | -38.67146 | 36986 ft | 443 kts | 357° |
| 2026-04-27 21:01 | -8.01787 | -38.67790 | 36978 ft | 442 kts | 357° |
| 2026-04-27 21:02 | -7.95650 | -38.68431 | 36979 ft | 442 kts | 357° |
| 2026-04-27 21:02 | -7.89510 | -38.69069 | 36988 ft | 443 kts | 357° |
| 2026-04-27 21:03 | -7.83398 | -38.69707 | 36999 ft | 443 kts | 357° |
| 2026-04-27 21:03 | -7.77242 | -38.70347 | 37009 ft | 444 kts | 357° |
| 2026-04-27 21:04 | -7.71081 | -38.70989 | 37016 ft | 444 kts | 357° |
| 2026-04-27 21:04 | -7.64908 | -38.71632 | 37014 ft | 444 kts | 357° |
| 2026-04-27 21:05 | -7.58775 | -38.72271 | 37012 ft | 444 kts | 357° |
| 2026-04-27 21:05 | -7.52568 | -38.72917 | 37013 ft | 444 kts | 357° |
| 2026-04-27 21:06 | -7.46420 | -38.73559 | 37005 ft | 443 kts | 357° |
| 2026-04-27 21:06 | -7.40285 | -38.74196 | 37007 ft | 444 kts | 357° |
| 2026-04-27 21:07 | -7.34110 | -38.74840 | 37005 ft | 443 kts | 357° |
| 2026-04-27 21:07 | -7.28000 | -38.75477 | 37002 ft | 443 kts | 357° |
| 2026-04-27 21:08 | -7.21817 | -38.76118 | 37001 ft | 443 kts | 357° |
| 2026-04-27 21:08 | -7.15660 | -38.76759 | 36994 ft | 443 kts | 357° |
| 2026-04-27 21:09 | -7.09511 | -38.77397 | 36990 ft | 443 kts | 357° |
| 2026-04-27 21:09 | -7.03405 | -38.78032 | 36986 ft | 443 kts | 357° |
| 2026-04-27 21:10 | -6.99383 | -38.78449 | 36979 ft | 443 kts | 357° |
| 2026-04-27 21:10 | -6.93206 | -38.79092 | 36973 ft | 444 kts | 357° |
| 2026-04-27 21:11 | -6.87064 | -38.79729 | 36960 ft | 444 kts | 357° |
| 2026-04-27 21:11 | -6.80919 | -38.80366 | 36951 ft | 443 kts | 357° |
| 2026-04-27 21:12 | -6.74800 | -38.81001 | 36945 ft | 443 kts | 357° |
| 2026-04-27 21:12 | -6.68620 | -38.81641 | 36940 ft | 443 kts | 357° |
| 2026-04-27 21:13 | -6.62482 | -38.82278 | 36939 ft | 442 kts | 357° |
| 2026-04-27 21:13 | -6.56353 | -38.82914 | 36937 ft | 442 kts | 358° |
| 2026-04-27 21:14 | -6.50199 | -38.83552 | 36938 ft | 442 kts | 358° |
| 2026-04-27 21:14 | -6.44059 | -38.84188 | 36935 ft | 442 kts | 358° |
| 2026-04-27 21:15 | -6.37933 | -38.84824 | 36933 ft | 442 kts | 358° |
| 2026-04-27 21:15 | -6.31834 | -38.85455 | 36929 ft | 442 kts | 358° |
| 2026-04-27 21:16 | -6.25694 | -38.86091 | 36923 ft | 442 kts | 358° |
| 2026-04-27 21:16 | -6.19552 | -38.86728 | 36924 ft | 442 kts | 358° |
| 2026-04-27 21:17 | -6.13433 | -38.87362 | 36928 ft | 441 kts | 358° |
| 2026-04-27 21:17 | -6.07318 | -38.87993 | 36934 ft | 442 kts | 358° |
| 2026-04-27 21:18 | -6.01173 | -38.88629 | 36937 ft | 442 kts | 358° |
| 2026-04-27 21:18 | -5.95033 | -38.89265 | 36941 ft | 443 kts | 358° |
| 2026-04-27 21:19 | -5.88925 | -38.89897 | 36940 ft | 442 kts | 358° |
| 2026-04-27 21:19 | -5.82771 | -38.90533 | 36938 ft | 442 kts | 358° |
| 2026-04-27 21:20 | -5.73577 | -38.91482 | 36579 ft | 441 kts | 358° |
| 2026-04-27 21:20 | -5.70524 | -38.91796 | 36255 ft | 438 kts | 358° |
| 2026-04-27 21:20 | -5.67524 | -38.92107 | 35794 ft | 435 kts | 358° |
| 2026-04-27 21:21 | -5.64514 | -38.92419 | 35233 ft | 434 kts | 358° |
| 2026-04-27 21:21 | -5.61486 | -38.92730 | 34623 ft | 434 kts | 358° |
| 2026-04-27 21:21 | -5.58502 | -38.93037 | 33956 ft | 434 kts | 358° |
| 2026-04-27 21:21 | -5.55496 | -38.93348 | 33281 ft | 434 kts | 358° |
| 2026-04-27 21:22 | -5.52472 | -38.93659 | 32624 ft | 433 kts | 358° |
| 2026-04-27 21:22 | -5.49478 | -38.93968 | 31982 ft | 433 kts | 357° |
| 2026-04-27 21:22 | -5.46463 | -38.94279 | 31299 ft | 435 kts | 357° |
| 2026-04-27 21:22 | -5.43454 | -38.94589 | 30608 ft | 435 kts | 357° |
| 2026-04-27 21:23 | -5.40486 | -38.94897 | 30175 ft | 430 kts | 357° |
| 2026-04-27 21:23 | -5.37510 | -38.95205 | 29718 ft | 426 kts | 357° |
| 2026-04-27 21:23 | -5.34565 | -38.95509 | 29265 ft | 421 kts | 356° |
| 2026-04-27 21:23 | -5.31651 | -38.95811 | 28810 ft | 417 kts | 356° |
| 2026-04-27 21:24 | -5.28810 | -38.96105 | 28380 ft | 412 kts | 356° |
| 2026-04-27 21:24 | -5.25953 | -38.96402 | 27923 ft | 409 kts | 357° |
| 2026-04-27 21:24 | -5.23118 | -38.96697 | 27469 ft | 405 kts | 357° |
| 2026-04-27 21:24 | -5.20339 | -38.96986 | 27018 ft | 402 kts | 357° |
| 2026-04-27 21:25 | -5.17551 | -38.97273 | 26575 ft | 398 kts | 358° |
| 2026-04-27 21:25 | -5.14807 | -38.97557 | 26135 ft | 395 kts | 358° |
| 2026-04-27 21:25 | -5.12080 | -38.97839 | 25696 ft | 392 kts | 358° |
| 2026-04-27 21:25 | -5.09363 | -38.98120 | 25256 ft | 389 kts | 358° |
| 2026-04-27 21:26 | -5.06672 | -38.98397 | 24815 ft | 386 kts | 358° |
| 2026-04-27 21:26 | -5.04162 | -38.98656 | 24400 ft | 385 kts | 359° |
| 2026-04-27 21:26 | -5.01500 | -38.98931 | 23968 ft | 382 kts | 359° |
| 2026-04-27 21:26 | -4.98848 | -38.99204 | 23539 ft | 380 kts | 359° |
| 2026-04-27 21:27 | -4.96240 | -38.99472 | 23107 ft | 378 kts | 359° |
| 2026-04-27 21:27 | -4.93605 | -38.99743 | 22671 ft | 377 kts | 359° |
| 2026-04-27 21:27 | -4.91010 | -39.00010 | 22245 ft | 375 kts | 359° |
| 2026-04-27 21:27 | -4.88398 | -39.00276 | 21817 ft | 374 kts | 359° |
| 2026-04-27 21:28 | -4.85810 | -39.00541 | 21387 ft | 373 kts | 359° |
| 2026-04-27 21:28 | -4.83213 | -39.00807 | 20954 ft | 372 kts | 359° |
| 2026-04-27 21:28 | -4.80629 | -39.01071 | 20518 ft | 371 kts | 358° |
| 2026-04-27 21:28 | -4.78082 | -39.01332 | 20090 ft | 371 kts | 358° |
| 2026-04-27 21:29 | -4.75502 | -39.01597 | 19655 ft | 370 kts | 358° |
| 2026-04-27 21:29 | -4.72927 | -39.01863 | 19219 ft | 369 kts | 357° |
| 2026-04-27 21:29 | -4.70364 | -39.02125 | 18783 ft | 368 kts | 357° |
| 2026-04-27 21:29 | -4.67809 | -39.02389 | 18357 ft | 367 kts | 356° |
| 2026-04-27 21:30 | -4.65270 | -39.02652 | 17925 ft | 366 kts | 356° |
| 2026-04-27 21:30 | -4.62739 | -39.02913 | 17510 ft | 365 kts | 356° |
| 2026-04-27 21:30 | -4.60225 | -39.03173 | 17093 ft | 364 kts | 356° |
| 2026-04-27 21:30 | -4.57688 | -39.03436 | 16664 ft | 363 kts | 356° |
| 2026-04-27 21:31 | -4.55196 | -39.03694 | 16241 ft | 362 kts | 356° |
| 2026-04-27 21:31 | -4.52667 | -39.03956 | 15819 ft | 360 kts | 356° |
| 2026-04-27 21:31 | -4.50200 | -39.04211 | 15408 ft | 359 kts | 356° |
| 2026-04-27 21:31 | -4.47720 | -39.04466 | 14990 ft | 358 kts | 356° |
| 2026-04-27 21:32 | -4.45206 | -39.04725 | 14563 ft | 357 kts | 356° |
| 2026-04-27 21:32 | -4.42737 | -39.04979 | 14144 ft | 356 kts | 356° |
| 2026-04-27 21:32 | -4.40291 | -39.04946 | 13702 ft | 351 kts | 11° |
| 2026-04-27 21:32 | -4.37952 | -39.04243 | 13268 ft | 346 kts | 27° |
| 2026-04-27 21:33 | -4.35851 | -39.03127 | 12864 ft | 342 kts | 32° |
| 2026-04-27 21:33 | -4.33788 | -39.01929 | 12458 ft | 340 kts | 32° |
| 2026-04-27 21:33 | -4.31766 | -39.00757 | 12056 ft | 337 kts | 32° |
| 2026-04-27 21:33 | -4.29704 | -38.99581 | 11647 ft | 335 kts | 32° |
| 2026-04-27 21:34 | -4.27697 | -38.98447 | 11279 ft | 331 kts | 31° |
| 2026-04-27 21:34 | -4.25678 | -38.97320 | 10898 ft | 328 kts | 31° |
| 2026-04-27 21:34 | -4.23682 | -38.96215 | 10515 ft | 325 kts | 31° |
| 2026-04-27 21:34 | -4.21716 | -38.95125 | 10191 ft | 319 kts | 30° |
| 2026-04-27 21:35 | -4.19836 | -38.94082 | 10115 ft | 304 kts | 30° |
| 2026-04-27 21:35 | -4.18011 | -38.93072 | 10039 ft | 290 kts | 31° |
| 2026-04-27 21:35 | -4.16266 | -38.92107 | 9840 ft | 284 kts | 30° |
| 2026-04-27 21:35 | -4.14549 | -38.91154 | 9505 ft | 283 kts | 30° |
| 2026-04-27 21:36 | -4.12827 | -38.90198 | 9173 ft | 281 kts | 31° |
| 2026-04-27 21:36 | -4.11068 | -38.89296 | 8835 ft | 282 kts | 26° |
| 2026-04-27 21:36 | -4.09266 | -38.88558 | 8474 ft | 282 kts | 21° |
| 2026-04-27 21:36 | -4.07388 | -38.87911 | 8136 ft | 281 kts | 20° |
| 2026-04-27 21:37 | -4.05541 | -38.87290 | 7816 ft | 279 kts | 20° |
| 2026-04-27 21:37 | -4.03715 | -38.86678 | 7505 ft | 277 kts | 21° |
| 2026-04-27 21:37 | -4.01882 | -38.86062 | 7201 ft | 274 kts | 21° |
| 2026-04-27 21:37 | -4.00113 | -38.85386 | 6885 ft | 271 kts | 28° |
| 2026-04-27 21:38 | -3.98467 | -38.84469 | 6582 ft | 267 kts | 36° |
| 2026-04-27 21:38 | -3.96955 | -38.83424 | 6293 ft | 264 kts | 38° |
| 2026-04-27 21:38 | -3.95467 | -38.82353 | 5995 ft | 262 kts | 38° |
| 2026-04-27 21:38 | -3.93984 | -38.81283 | 5695 ft | 261 kts | 38° |
| 2026-04-27 21:39 | -3.92505 | -38.80222 | 5396 ft | 259 kts | 37° |
| 2026-04-27 21:39 | -3.91040 | -38.79179 | 5099 ft | 258 kts | 38° |
| 2026-04-27 21:39 | -3.89579 | -38.78137 | 4805 ft | 256 kts | 37° |
| 2026-04-27 21:39 | -3.88122 | -38.77111 | 4514 ft | 254 kts | 37° |
| 2026-04-27 21:40 | -3.86680 | -38.76096 | 4266 ft | 251 kts | 37° |
| 2026-04-27 21:40 | -3.85288 | -38.75117 | 4212 ft | 238 kts | 37° |
| 2026-04-27 21:40 | -3.83975 | -38.74187 | 4193 ft | 224 kts | 38° |
| 2026-04-27 21:40 | -3.82698 | -38.73328 | 4136 ft | 215 kts | 31° |
| 2026-04-27 21:41 | -3.81351 | -38.72751 | 4016 ft | 210 kts | 21° |
| 2026-04-27 21:41 | -3.79958 | -38.72348 | 3908 ft | 202 kts | 18° |
| 2026-04-27 21:41 | -3.78627 | -38.71996 | 3818 ft | 195 kts | 18° |
| 2026-04-27 21:41 | -3.77317 | -38.71648 | 3721 ft | 194 kts | 18° |
| 2026-04-27 21:42 | -3.76001 | -38.71294 | 3608 ft | 194 kts | 18° |
| 2026-04-27 21:42 | -3.74686 | -38.70937 | 3481 ft | 194 kts | 18° |
| 2026-04-27 21:42 | -3.73398 | -38.70543 | 3151 ft | 199 kts | 29° |
| 2026-04-27 21:42 | -3.72479 | -38.69564 | 2802 ft | 195 kts | 76° |
| 2026-04-27 21:43 | -3.72590 | -38.68317 | 2752 ft | 175 kts | 114° |
| 2026-04-27 21:43 | -3.73180 | -38.67319 | 2595 ft | 160 kts | 122° |
| 2026-04-27 21:43 | -3.73750 | -38.66410 | 2395 ft | 147 kts | 117° |
| 2026-04-27 21:43 | -3.74175 | -38.65519 | 2194 ft | 137 kts | 110° |
| 2026-04-27 21:44 | -3.74505 | -38.64638 | 2027 ft | 136 kts | 108° |
| 2026-04-27 21:44 | -3.74804 | -38.63733 | 1855 ft | 136 kts | 105° |
| 2026-04-27 21:44 | -3.75071 | -38.62823 | 1684 ft | 136 kts | 104° |
| 2026-04-27 21:44 | -3.75320 | -38.61914 | 1518 ft | 135 kts | 104° |
| 2026-04-27 21:45 | -3.75562 | -38.61008 | 1350 ft | 135 kts | 103° |
| 2026-04-27 21:45 | -3.75801 | -38.60103 | 1178 ft | 134 kts | 104° |
| 2026-04-27 21:45 | -3.76044 | -38.59199 | 1009 ft | 134 kts | 102° |
| 2026-04-27 21:45 | -3.76287 | -38.58288 | 840 ft | 134 kts | 103° |
| 2026-04-27 21:46 | -3.76525 | -38.57400 | 672 ft | 133 kts | 103° |
| 2026-04-27 21:46 | -3.76765 | -38.56501 | 503 ft | 133 kts | 103° |
| 2026-04-27 21:46 | -3.77007 | -38.55600 | 334 ft | 132 kts | 103° |
| 2026-04-27 21:46 | -3.77244 | -38.54713 | 183 ft | 131 kts | 105° |
| 2026-04-27 21:47 | -3.77473 | -38.53859 | 93 ft | 108 kts | 102° |
| 2026-04-27 21:47 | -3.77588 | -38.53420 | 88 ft | 30 kts | 102° |
| 2026-04-27 21:47 | -3.77645 | -38.53218 | 87 ft | 29 kts | 105° |
| 2026-04-27 21:47 | -3.77693 | -38.53025 | 87 ft | 27 kts | 107° |
| 2026-04-27 21:48 | -3.77743 | -38.52847 | 88 ft | 25 kts | 105° |
| 2026-04-27 21:48 | -3.77780 | -38.52703 | 86 ft | 14 kts | 103° |
| 2026-04-27 21:48 | -3.77806 | -38.52626 | 85 ft | 10 kts | 132° |
| 2026-04-27 21:48 | -3.77866 | -38.52649 | 86 ft | 8 kts | 241° |
| 2026-04-27 21:49 | -3.77877 | -38.52669 | 87 ft | 2 kts | 241° |
| 2026-04-27 21:49 | -3.77886 | -38.52685 | 88 ft | 2 kts | 241° |
| 2026-04-27 21:49 | -3.77893 | -38.52700 | 88 ft | 2 kts | 243° |
| 2026-04-27 21:49 | -3.77902 | -38.52717 | 88 ft | 3 kts | 244° |
| 2026-04-27 21:50 | -3.77916 | -38.52747 | 89 ft | 5 kts | 251° |
| 2026-04-27 21:50 | -3.77918 | -38.52792 | 90 ft | 7 kts | 282° |
| 2026-04-27 21:50 | -3.77902 | -38.52853 | 91 ft | 10 kts | 285° |
| 2026-04-27 21:50 | -3.77879 | -38.52938 | 90 ft | 14 kts | 285° |
| 2026-04-27 21:51 | -3.77850 | -38.53043 | 91 ft | 16 kts | 285° |
| 2026-04-27 21:51 | -3.77821 | -38.53155 | 92 ft | 17 kts | 285° |
| 2026-04-27 21:51 | -3.77789 | -38.53274 | 92 ft | 19 kts | 284° |
| 2026-04-27 21:51 | -3.77756 | -38.53402 | 91 ft | 20 kts | 284° |
| 2026-04-27 21:52 | -3.77719 | -38.53541 | 92 ft | 20 kts | 286° |
| 2026-04-27 21:52 | -3.77683 | -38.53668 | 93 ft | 16 kts | 285° |
| 2026-04-27 21:52 | -3.77668 | -38.53761 | 95 ft | 10 kts | 255° |
| 2026-04-27 21:52 | -3.77703 | -38.53828 | 96 ft | 11 kts | 240° |
| 2026-04-27 21:53 | -3.77744 | -38.53885 | 96 ft | 8 kts | 209° |
| 2026-04-27 21:53 | -3.77784 | -38.53912 | 96 ft | 8 kts | 226° |
| 2026-04-27 21:53 | -3.77810 | -38.53941 | 95 ft | 0 kts | 228° |
| 2026-04-27 21:53 | -3.77810 | -38.53940 | 95 ft | 0 kts | 228° |